Time;durP1;ratioP1;P1;durP2;ratioP2;P2;SDS_P1;SDS_P2;PMS_P1;PMS_P2;Temp;Humidity;BMP_temperature;BMP_pressure;BME280_temperature;BME280_humidity;BME280_pressure;Samples;Min_cycle;Max_cycle;Signal;HPM_P1;HPM_P2
2023/01/09 00:00:27;;;;;;;4.50;2.63;;;6.80;99.90;;;;;;5084844;27;20111;-74
2023/01/09 00:02:54;;;;;;;3.53;2.38;;;6.90;99.90;;;;;;5106995;28;20019;-74
2023/01/09 00:05:20;;;;;;;3.05;2.15;;;6.90;99.90;;;;;;5109070;28;20402;-74
2023/01/09 00:07:45;;;;;;;4.38;2.47;;;6.90;99.90;;;;;;5104592;28;20459;-73
2023/01/09 00:10:12;;;;;;;4.47;2.70;;;6.90;99.90;;;;;;5105494;28;20088;-74
2023/01/09 00:12:38;;;;;;;4.85;2.63;;;6.80;99.90;;;;;;5105199;28;20624;-74
2023/01/09 00:15:04;;;;;;;4.10;2.35;;;6.80;99.90;;;;;;5090532;28;20019;-74
2023/01/09 00:17:31;;;;;;;3.33;2.53;;;6.80;99.90;;;;;;5089340;28;20016;-74
2023/01/09 00:19:57;;;;;;;3.60;2.28;;;6.80;99.90;;;;;;5105142;28;20012;-74
2023/01/09 00:22:23;;;;;;;3.92;2.30;;;6.80;99.90;;;;;;5091068;28;20042;-74
2023/01/09 00:24:49;;;;;;;7.10;2.47;;;6.80;99.90;;;;;;5107273;28;20062;-74
2023/01/09 00:27:14;;;;;;;2.70;2.13;;;6.80;99.90;;;;;;5107174;28;20028;-74
2023/01/09 00:29:41;;;;;;;4.32;2.60;;;6.80;99.90;;;;;;5087843;28;20099;-74
2023/01/09 00:32:09;;;;;;;3.42;2.28;;;6.80;99.90;;;;;;5110445;28;20444;-79
2023/01/09 00:34:38;;;;;;;5.38;2.28;;;6.80;99.90;;;;;;5088833;28;20036;-77
2023/01/09 00:37:10;;;;;;;2.95;1.80;;;6.80;99.90;;;;;;5109759;28;20070;-77
2023/01/09 00:39:37;;;;;;;4.90;2.30;;;6.80;99.90;;;;;;5086852;28;20024;-77
2023/01/09 00:42:05;;;;;;;2.70;2.08;;;6.70;99.90;;;;;;5109442;28;20015;-77
2023/01/09 00:44:36;;;;;;;4.13;2.38;;;6.80;99.90;;;;;;5089184;28;20347;-77
2023/01/09 00:47:06;;;;;;;3.30;2.28;;;6.80;99.90;;;;;;5089992;28;20053;-77
2023/01/09 00:49:35;;;;;;;4.97;2.30;;;6.80;99.90;;;;;;5088220;28;20024;-77
2023/01/09 00:52:03;;;;;;;2.85;2.00;;;6.80;99.90;;;;;;5086393;28;20083;-77
2023/01/09 00:54:29;;;;;;;4.07;2.13;;;6.80;99.90;;;;;;5085887;28;20024;-77
2023/01/09 00:56:55;;;;;;;4.07;2.10;;;6.80;99.90;;;;;;5110839;28;20102;-78
2023/01/09 00:59:22;;;;;;;3.42;2.17;;;6.80;99.90;;;;;;5091498;28;20027;-78
2023/01/09 01:01:48;;;;;;;4.22;1.95;;;6.80;99.90;;;;;;5082036;28;20039;-76
2023/01/09 01:09:43;;;;;;;3.47;2.10;;;6.80;99.90;;;;;;5082120;28;20034;-77
2023/01/09 01:12:08;;;;;;;3.08;2.30;;;6.80;99.90;;;;;;5103823;28;20106;-75
2023/01/09 01:14:36;;;;;;;2.72;1.90;;;6.80;99.90;;;;;;5088740;28;20032;-77
2023/01/09 01:17:03;;;;;;;5.28;2.17;;;6.80;99.90;;;;;;5089397;28;20078;-76
2023/01/09 01:19:29;;;;;;;2.72;2.25;;;6.80;99.90;;;;;;5074998;28;20153;-75
2023/01/09 01:21:55;;;;;;;4.03;2.50;;;6.80;99.90;;;;;;5090047;28;20098;-76
2023/01/09 01:24:22;;;;;;;3.35;1.95;;;6.80;99.90;;;;;;5089590;28;20033;-75
2023/01/09 01:26:48;;;;;;;3.65;2.20;;;6.80;99.90;;;;;;5090350;28;20038;-76
2023/01/09 01:29:13;;;;;;;2.88;1.70;;;6.70;99.90;;;;;;5088259;28;20035;-76
2023/01/09 01:31:39;;;;;;;3.20;2.20;;;6.70;99.90;;;;;;5105440;28;20035;-76
2023/01/09 01:34:05;;;;;;;3.17;2.25;;;6.70;99.90;;;;;;5070919;28;20046;-76
2023/01/09 01:36:32;;;;;;;3.40;2.15;;;6.70;99.90;;;;;;5073040;28;20028;-76
2023/01/09 01:38:58;;;;;;;2.65;2.00;;;6.70;99.90;;;;;;5071765;28;20032;-76
2023/01/09 01:41:29;;;;;;;3.33;2.30;;;6.70;99.90;;;;;;5089282;28;20054;-75
2023/01/09 01:43:57;;;;;;;4.68;1.80;;;6.70;99.90;;;;;;5086623;28;20035;-76
2023/01/09 01:46:22;;;;;;;3.95;2.15;;;6.70;99.90;;;;;;5093337;28;20650;-76
2023/01/09 01:48:57;;;;;;;5.15;2.75;;;6.70;99.90;;;;;;5114381;28;20047;-76
2023/01/09 01:51:26;;;;;;;5.00;2.30;;;6.70;99.90;;;;;;5106265;28;20031;-76
2023/01/09 01:53:56;;;;;;;3.85;2.65;;;6.70;99.90;;;;;;5088464;28;20023;-76
2023/01/09 01:56:26;;;;;;;4.47;2.30;;;6.70;99.90;;;;;;5108267;28;20032;-76
2023/01/09 01:58:56;;;;;;;3.67;2.10;;;6.70;99.90;;;;;;5072422;28;20058;-76
2023/01/09 02:01:23;;;;;;;2.70;2.20;;;6.70;99.90;;;;;;5081685;28;20020;-75
2023/01/09 02:03:51;;;;;;;5.07;2.03;;;6.80;99.90;;;;;;5103534;28;20040;-76
2023/01/09 02:06:17;;;;;;;5.13;2.30;;;6.80;99.90;;;;;;5087305;28;20027;-77
2023/01/09 02:08:44;;;;;;;2.53;2.15;;;6.80;99.90;;;;;;5104403;28;20032;-77
2023/01/09 02:11:13;;;;;;;3.28;1.98;;;6.90;99.90;;;;;;5086535;28;20060;-77
2023/01/09 02:13:39;;;;;;;3.28;2.10;;;6.90;99.90;;;;;;5105734;28;20089;-77
2023/01/09 02:16:26;;;;;;;5.40;2.20;;;6.90;99.90;;;;;;5068477;28;20119;-78
2023/01/09 02:19:29;;;;;;;3.83;2.00;;;6.90;99.90;;;;;;5073060;28;20449;-76
2023/01/09 02:22:09;;;;;;;3.40;2.28;;;7.00;99.90;;;;;;5107304;28;20054;-78
2023/01/09 02:24:43;;;;;;;5.15;2.33;;;7.00;99.90;;;;;;5069656;28;20039;-76
2023/01/09 02:27:18;;;;;;;3.00;2.00;;;7.00;99.90;;;;;;5088573;28;20028;-77
2023/01/09 02:30:17;;;;;;;3.00;2.42;;;7.00;99.90;;;;;;5105507;28;20032;-76
2023/01/09 02:32:55;;;;;;;4.75;2.35;;;7.00;99.90;;;;;;5097385;28;20659;-76
2023/01/09 02:35:20;;;;;;;3.20;2.15;;;7.00;99.90;;;;;;5090745;28;20028;-75
2023/01/09 02:37:55;;;;;;;3.65;2.63;;;7.00;99.90;;;;;;5096805;28;20024;-76
2023/01/09 02:40:30;;;;;;;4.00;1.80;;;7.00;99.90;;;;;;5105762;28;20781;-76
2023/01/09 02:42:59;;;;;;;3.20;2.30;;;7.10;99.90;;;;;;5071631;28;20073;-76
2023/01/09 02:45:25;;;;;;;3.33;2.10;;;7.10;99.90;;;;;;5109243;28;20074;-76
2023/01/09 02:47:51;;;;;;;3.35;2.05;;;7.10;99.90;;;;;;5109461;28;20039;-77
2023/01/09 02:50:26;;;;;;;3.90;2.20;;;7.10;99.90;;;;;;5091470;28;20081;-76
2023/01/09 02:53:09;;;;;;;3.03;2.40;;;7.10;99.90;;;;;;5109629;28;20069;-76
2023/01/09 02:55:56;;;;;;;2.70;2.00;;;7.10;99.90;;;;;;5090495;28;20435;-77
2023/01/09 02:58:54;;;;;;;3.53;2.22;;;7.10;99.90;;;;;;5091654;28;20027;-76
2023/01/09 03:01:22;;;;;;;3.67;2.22;;;7.20;99.90;;;;;;5082702;28;20039;-77
2023/01/09 03:04:07;;;;;;;6.00;2.05;;;7.20;99.90;;;;;;5110238;28;20028;-72
2023/01/09 03:06:59;;;;;;;4.80;2.30;;;7.20;99.90;;;;;;5109205;28;20028;-76
2023/01/09 03:09:28;;;;;;;3.88;2.20;;;7.20;99.90;;;;;;5108382;28;20028;-75
2023/01/09 03:12:06;;;;;;;4.07;2.03;;;7.20;99.90;;;;;;5087710;28;20102;-76
2023/01/09 03:14:34;;;;;;;4.20;2.40;;;7.20;99.90;;;;;;5109782;28;20458;-78
2023/01/09 03:17:06;;;;;;;4.15;2.40;;;7.20;99.90;;;;;;5090665;28;20028;-75
2023/01/09 03:19:33;;;;;;;3.83;1.95;;;7.20;99.90;;;;;;5070810;28;20032;-75
2023/01/09 03:22:01;;;;;;;3.42;2.10;;;7.20;99.90;;;;;;5110650;28;20024;-75
2023/01/09 03:24:27;;;;;;;3.75;2.00;;;7.30;99.90;;;;;;5086837;28;20031;-76
2023/01/09 03:26:54;;;;;;;3.03;1.73;;;7.30;99.90;;;;;;5091078;28;20046;-75
2023/01/09 03:29:20;;;;;;;2.42;1.85;;;7.30;99.90;;;;;;5090745;28;20880;-75
2023/01/09 03:31:46;;;;;;;3.13;2.10;;;7.20;99.90;;;;;;5111763;28;20035;-76
2023/01/09 03:34:11;;;;;;;4.40;2.08;;;7.30;99.90;;;;;;5090630;28;20031;-75
2023/01/09 03:36:37;;;;;;;4.82;2.53;;;7.30;99.90;;;;;;5090554;28;20629;-77
2023/01/09 03:39:03;;;;;;;3.70;2.10;;;7.20;99.90;;;;;;5090295;28;20046;-77
2023/01/09 03:41:29;;;;;;;3.45;2.40;;;7.20;99.90;;;;;;5095827;28;20040;-76
2023/01/09 03:43:54;;;;;;;2.90;2.00;;;7.20;99.90;;;;;;5113051;28;20019;-73
2023/01/09 03:46:20;;;;;;;4.38;2.15;;;7.30;99.90;;;;;;5090828;28;20638;-73
2023/01/09 03:48:46;;;;;;;2.63;1.80;;;7.30;99.90;;;;;;5108108;28;20035;-73
2023/01/09 03:51:11;;;;;;;5.53;2.40;;;7.30;99.90;;;;;;5092002;28;20126;-73
2023/01/09 03:53:40;;;;;;;3.97;2.03;;;7.30;99.90;;;;;;5107286;28;20027;-73
2023/01/09 03:56:06;;;;;;;5.63;2.17;;;7.30;99.90;;;;;;5105558;27;20098;-73
2023/01/09 03:58:32;;;;;;;2.70;1.90;;;7.30;99.90;;;;;;5108899;28;20061;-73
2023/01/09 04:01:00;;;;;;;3.95;2.03;;;7.30;99.90;;;;;;5090904;28;20020;-73
2023/01/09 04:03:25;;;;;;;4.53;1.88;;;7.40;99.90;;;;;;5090216;28;20510;-73
2023/01/09 04:05:51;;;;;;;2.50;1.95;;;7.40;99.90;;;;;;5109039;28;20028;-73
2023/01/09 04:08:17;;;;;;;3.10;1.83;;;7.40;99.90;;;;;;5108613;28;20024;-74
2023/01/09 04:10:44;;;;;;;4.22;2.22;;;7.40;99.90;;;;;;5108991;27;20034;-73
2023/01/09 04:13:10;;;;;;;3.83;1.95;;;7.40;99.90;;;;;;5088451;28;20043;-73
2023/01/09 04:15:36;;;;;;;3.38;1.45;;;7.40;99.90;;;;;;5090709;28;20039;-73
2023/01/09 04:18:03;;;;;;;2.58;1.85;;;7.40;99.90;;;;;;5112530;28;20022;-76
2023/01/09 04:20:29;;;;;;;1.92;1.60;;;7.40;99.90;;;;;;5096302;28;20119;-76
2023/01/09 04:22:55;;;;;;;6.32;2.00;;;7.40;99.90;;;;;;5090323;28;20027;-76
2023/01/09 04:25:21;;;;;;;2.78;2.10;;;7.40;99.90;;;;;;5088419;28;20039;-73
2023/01/09 04:27:47;;;;;;;3.00;1.95;;;7.40;99.90;;;;;;5106806;28;20031;-73
2023/01/09 04:30:13;;;;;;;6.30;1.85;;;7.50;99.90;;;;;;5109022;28;20058;-76
2023/01/09 04:32:40;;;;;;;3.15;1.98;;;7.40;99.90;;;;;;5108185;28;20019;-73
2023/01/09 04:35:06;;;;;;;4.82;1.77;;;7.50;99.90;;;;;;5090427;28;20051;-73
2023/01/09 04:37:34;;;;;;;4.45;1.60;;;7.50;99.90;;;;;;5087582;28;20027;-73
2023/01/09 04:40:03;;;;;;;2.92;1.75;;;7.50;99.90;;;;;;5071074;28;20057;-74
2023/01/09 04:42:28;;;;;;;3.03;1.90;;;7.50;99.90;;;;;;5088920;28;20024;-74
2023/01/09 04:44:54;;;;;;;7.80;2.08;;;7.50;99.90;;;;;;5088336;28;20134;-73
2023/01/09 04:47:20;;;;;;;5.50;1.92;;;7.50;99.90;;;;;;5106594;28;20061;-73
2023/01/09 04:49:46;;;;;;;3.55;1.83;;;7.50;99.90;;;;;;5088598;28;20044;-73
2023/01/09 04:52:12;;;;;;;3.20;1.92;;;7.50;99.90;;;;;;5089334;28;20111;-73
2023/01/09 04:54:38;;;;;;;4.78;1.85;;;7.50;99.90;;;;;;5088628;28;20050;-74
2023/01/09 04:57:04;;;;;;;2.88;1.73;;;7.40;99.90;;;;;;5087647;28;20080;-73
2023/01/09 04:59:30;;;;;;;3.03;2.10;;;7.40;99.90;;;;;;5106047;28;20027;-74
2023/01/09 05:01:57;;;;;;;3.38;2.20;;;7.40;99.90;;;;;;5089386;28;20024;-73
2023/01/09 05:04:23;;;;;;;4.40;2.17;;;7.40;99.90;;;;;;5088148;28;20647;-73
2023/01/09 05:06:49;;;;;;;7.03;2.10;;;7.40;99.90;;;;;;5089531;28;20035;-74
2023/01/09 05:09:14;;;;;;;4.15;1.92;;;7.40;99.90;;;;;;5114250;28;20028;-75
2023/01/09 05:11:40;;;;;;;3.83;2.20;;;7.40;99.90;;;;;;5113585;28;20032;-73
2023/01/09 05:14:06;;;;;;;5.13;2.38;;;7.30;99.90;;;;;;5095796;28;20027;-74
2023/01/09 05:16:32;;;;;;;5.05;2.00;;;7.40;99.90;;;;;;5086658;28;20020;-73
2023/01/09 05:18:59;;;;;;;3.40;1.80;;;7.30;99.90;;;;;;5088155;28;20073;-73
2023/01/09 05:21:25;;;;;;;3.47;2.05;;;7.30;99.90;;;;;;5086472;28;20026;-73
2023/01/09 05:23:51;;;;;;;3.70;2.65;;;7.30;99.90;;;;;;5086671;28;20415;-72
2023/01/09 05:26:22;;;;;;;2.92;2.00;;;7.30;99.90;;;;;;5108851;28;20135;-73
2023/01/09 05:28:50;;;;;;;;;;;7.30;99.90;;;;;;5074043;28;20038;-73
2023/01/09 05:31:16;;;;;;;7.00;2.40;;;7.20;99.90;;;;;;5089015;28;20011;-74
2023/01/09 05:33:42;;;;;;;4.63;2.90;;;7.20;99.90;;;;;;5107694;28;20123;-73
2023/01/09 05:36:08;;;;;;;5.18;2.63;;;7.20;99.90;;;;;;5085139;28;20106;-73
2023/01/09 05:38:33;;;;;;;4.45;3.10;;;7.20;99.90;;;;;;5086588;28;20020;-73
2023/01/09 05:40:59;;;;;;;7.85;3.08;;;7.20;99.90;;;;;;5070451;28;20046;-73
2023/01/09 05:43:25;;;;;;;6.43;3.03;;;7.20;99.90;;;;;;5071299;28;20065;-73
2023/01/09 05:45:51;;;;;;;4.60;3.20;;;7.20;99.90;;;;;;5085711;28;20155;-73
2023/01/09 05:48:16;;;;;;;6.45;3.42;;;7.20;99.90;;;;;;5102332;28;20132;-73
2023/01/09 05:50:42;;;;;;;5.00;3.38;;;7.20;99.90;;;;;;5087662;28;20031;-75
2023/01/09 05:53:08;;;;;;;4.78;2.83;;;7.20;99.90;;;;;;5102356;28;20125;-76
2023/01/09 05:55:34;;;;;;;4.72;3.08;;;7.20;99.90;;;;;;5092426;28;20107;-76
2023/01/09 05:58:00;;;;;;;4.55;3.25;;;7.20;99.90;;;;;;5103764;28;20024;-75
2023/01/09 06:00:26;;;;;;;4.78;3.63;;;7.30;99.90;;;;;;5087859;28;20491;-76
2023/01/09 06:02:51;;;;;;;8.07;3.40;;;7.20;99.90;;;;;;5083972;28;20043;-75
2023/01/09 06:05:17;;;;;;;5.45;3.05;;;7.30;99.90;;;;;;5086131;28;20363;-75
2023/01/09 06:07:44;;;;;;;4.75;2.72;;;7.30;99.90;;;;;;5087342;28;20502;-76
2023/01/09 06:10:12;;;;;;;4.00;2.40;;;7.20;99.90;;;;;;5107853;28;20114;-76
2023/01/09 06:12:38;;;;;;;4.38;2.45;;;7.20;99.90;;;;;;5084848;28;20035;-73
2023/01/09 06:15:04;;;;;;;2.85;2.00;;;7.20;99.90;;;;;;5110123;28;20499;-73
2023/01/09 06:17:30;;;;;;;3.33;1.88;;;7.20;99.90;;;;;;5106925;28;20087;-75
2023/01/09 06:19:56;;;;;;;3.22;1.80;;;7.20;99.90;;;;;;5077921;28;20027;-74
2023/01/09 06:22:22;;;;;;;3.50;2.15;;;7.10;99.90;;;;;;5077969;28;20028;-74
2023/01/09 06:24:47;;;;;;;3.13;2.10;;;7.10;99.90;;;;;;5108910;28;20027;-75
2023/01/09 06:27:13;;;;;;;3.90;2.20;;;7.10;99.90;;;;;;5091706;28;20038;-74
2023/01/09 06:29:39;;;;;;;3.90;2.22;;;7.10;99.90;;;;;;5090700;28;20039;-75
2023/01/09 06:32:05;;;;;;;5.50;2.67;;;7.10;99.90;;;;;;5092344;28;20490;-74
2023/01/09 06:34:31;;;;;;;3.60;2.50;;;7.10;99.90;;;;;;5092344;28;20155;-74
2023/01/09 06:36:57;;;;;;;4.13;2.70;;;7.10;99.90;;;;;;5108720;28;20024;-75
2023/01/09 06:39:23;;;;;;;4.95;2.60;;;7.10;99.90;;;;;;5112175;28;20027;-74
2023/01/09 06:41:48;;;;;;;6.65;3.47;;;7.10;99.90;;;;;;5112734;28;20039;-74
2023/01/09 06:44:14;;;;;;;3.70;2.80;;;7.00;99.90;;;;;;5086628;28;20035;-75
2023/01/09 06:46:40;;;;;;;4.00;3.08;;;7.10;99.90;;;;;;5090559;28;20042;-75
2023/01/09 06:49:07;;;;;;;4.00;3.08;;;7.10;99.90;;;;;;5108787;28;20923;-76
2023/01/09 06:51:32;;;;;;;4.85;3.65;;;7.10;99.90;;;;;;5088410;28;20105;-77
2023/01/09 06:53:58;;;;;;;5.00;3.20;;;7.10;99.90;;;;;;5110532;28;20099;-76
2023/01/09 06:56:24;;;;;;;5.97;3.97;;;7.00;99.90;;;;;;5092691;28;20479;-76
2023/01/09 06:58:51;;;;;;;6.63;4.03;;;7.00;99.90;;;;;;5074456;28;20132;-76
2023/01/09 07:01:17;;;;;;;8.25;5.35;;;7.00;99.90;;;;;;5095229;28;20051;-75
2023/01/09 07:03:43;;;;;;;7.43;4.80;;;7.00;99.90;;;;;;5088273;28;20521;-76
2023/01/09 07:06:09;;;;;;;7.15;4.82;;;7.00;99.90;;;;;;5088414;28;20368;-76
2023/01/09 07:08:35;;;;;;;8.43;4.68;;;7.00;99.90;;;;;;5110711;28;20016;-76
2023/01/09 07:11:00;;;;;;;6.68;4.85;;;6.90;99.90;;;;;;5087945;28;20027;-75
2023/01/09 07:13:26;;;;;;;9.73;5.82;;;6.90;99.90;;;;;;5095077;27;20035;-76
2023/01/09 07:15:52;;;;;;;7.90;5.78;;;6.90;99.90;;;;;;5087242;28;20075;-76
2023/01/09 07:18:18;;;;;;;8.75;5.50;;;6.90;99.90;;;;;;5091246;28;20028;-76
2023/01/09 07:20:44;;;;;;;8.93;5.68;;;6.90;99.90;;;;;;5079761;28;20384;-76
2023/01/09 07:23:14;;;;;;;10.93;7.07;;;6.90;99.90;;;;;;5078154;28;20035;-76
2023/01/09 07:25:41;;;;;;;10.77;6.60;;;6.90;99.90;;;;;;5070654;28;20118;-75
2023/01/09 07:28:07;;;;;;;9.43;6.35;;;6.90;99.90;;;;;;5085542;28;20711;-76
2023/01/09 07:30:33;;;;;;;11.20;7.18;;;6.90;99.90;;;;;;5081668;28;20031;-76
2023/01/09 07:32:59;;;;;;;9.65;6.85;;;6.90;99.90;;;;;;5079870;28;20402;-76
2023/01/09 07:35:24;;;;;;;11.30;7.93;;;6.90;99.90;;;;;;5112124;27;20027;-76
2023/01/09 07:37:50;;;;;;;12.30;8.05;;;6.80;99.90;;;;;;5083056;28;20016;-76
2023/01/09 07:40:16;;;;;;;11.52;8.30;;;6.90;99.90;;;;;;5109616;28;20027;-75
2023/01/09 07:42:42;;;;;;;13.23;8.60;;;6.80;99.90;;;;;;5109236;28;20619;-75
2023/01/09 07:45:08;;;;;;;12.15;7.35;;;6.80;99.90;;;;;;5107776;28;20051;-75
2023/01/09 07:47:34;;;;;;;13.02;8.32;;;6.80;99.90;;;;;;5113089;28;20464;-75
2023/01/09 07:49:59;;;;;;;13.80;8.98;;;6.80;99.90;;;;;;5095128;28;20076;-74
2023/01/09 07:52:26;;;;;;;18.70;9.80;;;6.80;99.90;;;;;;5113026;28;20566;-75
2023/01/09 07:54:52;;;;;;;14.00;8.57;;;6.80;99.90;;;;;;5090836;28;20031;-75
2023/01/09 07:57:18;;;;;;;14.55;9.50;;;6.80;99.90;;;;;;5109729;27;20536;-75
2023/01/09 07:59:44;;;;;;;16.02;8.73;;;6.80;99.90;;;;;;5108964;28;20047;-75
2023/01/09 08:02:11;;;;;;;16.48;9.45;;;6.80;99.90;;;;;;5089463;28;20082;-74
2023/01/09 08:04:37;;;;;;;15.52;9.55;;;6.80;99.90;;;;;;5085152;28;20043;-74
2023/01/09 08:07:03;;;;;;;15.57;9.32;;;6.80;99.90;;;;;;5107741;27;20020;-75
2023/01/09 08:09:29;;;;;;;15.50;9.13;;;6.80;99.90;;;;;;5104759;27;20028;-76
2023/01/09 08:11:56;;;;;;;16.80;9.63;;;6.80;99.90;;;;;;5106193;27;20035;-75
2023/01/09 08:14:23;;;;;;;16.80;9.57;;;6.80;99.90;;;;;;5106247;27;20031;-76
2023/01/09 08:16:50;;;;;;;17.40;10.30;;;6.80;99.90;;;;;;5106489;27;20032;-76
2023/01/09 08:19:15;;;;;;;17.50;10.15;;;6.90;99.90;;;;;;5105612;28;20019;-75
2023/01/09 08:21:42;;;;;;;15.75;9.60;;;6.80;99.90;;;;;;5105377;28;20032;-75
2023/01/09 08:24:09;;;;;;;18.50;10.63;;;6.80;99.90;;;;;;5099295;28;20126;-75
2023/01/09 08:26:34;;;;;;;20.83;10.98;;;6.80;99.90;;;;;;5103406;27;20115;-75
2023/01/09 08:29:00;;;;;;;19.05;10.45;;;6.80;99.90;;;;;;5106194;27;20158;-76
2023/01/09 08:31:26;;;;;;;17.00;10.25;;;6.80;99.90;;;;;;5104334;28;20110;-77
2023/01/09 08:33:52;;;;;;;17.25;10.75;;;6.80;99.90;;;;;;5108365;28;20039;-78
2023/01/09 08:36:17;;;;;;;20.50;11.18;;;6.80;99.90;;;;;;5086778;28;20450;-75
2023/01/09 08:38:43;;;;;;;16.83;11.10;;;6.80;99.90;;;;;;5105724;27;20023;-74
2023/01/09 08:49:22;;;;;;;21.55;10.75;;;6.70;99.90;;;;;;5111151;27;20499;-77
2023/01/09 08:51:48;;;;;;;18.52;10.60;;;6.60;99.90;;;;;;5100417;28;20028;-72
2023/01/09 08:54:13;;;;;;;30.48;13.13;;;6.70;99.90;;;;;;5105442;28;20588;-75
2023/01/09 08:56:39;;;;;;;23.77;12.38;;;6.60;99.90;;;;;;5089615;28;20597;-75
2023/01/09 08:59:06;;;;;;;21.90;12.10;;;6.60;99.90;;;;;;5091525;28;20052;-75
2023/01/09 09:01:32;;;;;;;23.15;11.95;;;6.60;99.90;;;;;;5094132;27;20131;-76
2023/01/09 09:03:57;;;;;;;29.33;14.65;;;6.60;99.90;;;;;;5074794;28;20494;-76
2023/01/09 09:06:23;;;;;;;37.38;15.43;;;6.60;99.90;;;;;;5065477;28;20044;-75
2023/01/09 09:08:49;;;;;;;24.63;13.60;;;6.50;99.90;;;;;;5080424;28;20090;-77
2023/01/09 09:11:15;;;;;;;26.52;13.95;;;6.50;99.90;;;;;;5073236;28;20035;-76
2023/01/09 09:13:40;;;;;;;28.50;13.73;;;6.50;99.90;;;;;;5074755;28;21564;-78
2023/01/09 09:16:06;;;;;;;27.73;13.93;;;6.50;99.90;;;;;;5084225;27;20045;-74
2023/01/09 09:18:32;;;;;;;24.60;12.55;;;6.50;99.90;;;;;;5079690;28;20028;-74
2023/01/09 09:20:58;;;;;;;26.48;14.40;;;6.50;99.90;;;;;;5074353;28;20103;-76
2023/01/09 09:23:23;;;;;;;29.63;13.27;;;6.50;99.90;;;;;;5081358;28;20015;-75
2023/01/09 09:25:49;;;;;;;29.15;14.07;;;6.50;99.90;;;;;;5079283;28;20926;-78
2023/01/09 09:28:16;;;;;;;32.03;13.32;;;6.50;99.90;;;;;;5084244;28;20032;-78
2023/01/09 09:30:42;;;;;;;28.40;13.90;;;6.50;99.90;;;;;;5081359;28;20070;-73
2023/01/09 09:33:08;;;;;;;26.40;13.77;;;6.60;99.90;;;;;;5082098;28;20028;-78
2023/01/09 09:35:34;;;;;;;26.67;12.77;;;6.60;99.90;;;;;;5081609;28;20032;-76
2023/01/09 09:38:02;;;;;;;30.45;12.48;;;6.60;99.90;;;;;;5092724;27;20026;-78
2023/01/09 09:40:50;;;;;;;21.58;11.50;;;6.50;99.90;;;;;;5089889;28;20405;-76
2023/01/09 09:46:31;;;;;;;19.88;10.80;;;6.60;99.90;;;;;;5092891;28;20034;-75
2023/01/09 09:49:17;;;;;;;21.38;10.45;;;6.70;99.90;;;;;;5091758;28;20050;-78
2023/01/09 09:52:14;;;;;;;19.02;8.80;;;6.70;99.90;;;;;;5104231;28;20028;-75
2023/01/09 09:54:45;;;;;;;21.30;9.75;;;6.70;99.90;;;;;;5100666;28;20039;-76
2023/01/09 09:57:19;;;;;;;18.65;8.75;;;6.70;99.90;;;;;;5094436;28;20027;-76
2023/01/09 09:59:50;;;;;;;18.88;8.82;;;6.70;99.90;;;;;;5092978;28;20034;-73
2023/01/09 10:02:37;;;;;;;19.08;8.73;;;6.70;99.90;;;;;;5081370;28;20031;-73
2023/01/09 10:05:25;;;;;;;21.42;9.50;;;6.60;99.90;;;;;;5101734;28;20031;-73
2023/01/09 10:07:52;;;;;;;16.15;9.13;;;6.70;99.90;;;;;;5098049;28;20070;-73
2023/01/09 10:10:39;;;;;;;15.40;8.50;;;6.70;99.90;;;;;;5083844;28;20035;-74
2023/01/09 10:16:30;;;;;;;16.23;8.40;;;6.70;99.90;;;;;;5094643;28;20498;-74
2023/01/09 10:19:07;;;;;;;20.40;8.50;;;6.60;99.90;;;;;;5101774;28;20081;-74
2023/01/09 10:21:58;;;;;;;22.67;7.63;;;6.60;99.90;;;;;;5091436;28;20032;-74
2023/01/09 10:24:34;;;;;;;18.77;7.95;;;6.50;99.90;;;;;;5101091;28;20035;-74
2023/01/09 10:27:20;;;;;;;22.98;7.80;;;6.50;99.90;;;;;;5097646;28;20051;-74
2023/01/09 10:30:08;;;;;;;17.17;7.65;;;6.40;99.90;;;;;;5103086;28;20028;-74
2023/01/09 10:32:34;;;;;;;15.60;6.65;;;6.50;99.90;;;;;;5098763;28;20071;-74
2023/01/09 10:35:22;;;;;;;11.05;6.90;;;6.50;99.90;;;;;;5101540;28;20423;-75
2023/01/09 10:37:52;;;;;;;17.92;6.32;;;6.50;99.90;;;;;;5104094;28;20027;-76
2023/01/09 10:40:29;;;;;;;22.48;7.45;;;6.50;99.90;;;;;;5101269;28;20035;-74
2023/01/09 10:43:25;;;;;;;15.88;6.95;;;6.60;99.90;;;;;;5083542;28;20042;-74
2023/01/09 10:45:54;;;;;;;19.40;7.07;;;6.60;99.90;;;;;;5101821;28;20035;-73
2023/01/09 10:48:25;;;;;;;16.17;6.45;;;6.60;99.90;;;;;;5103788;28;20061;-74
2023/01/09 10:50:54;;;;;;;18.73;7.72;;;6.60;99.90;;;;;;5082979;28;20700;-74
2023/01/09 10:53:42;;;;;;;15.63;7.38;;;6.60;99.90;;;;;;5101264;28;20028;-73
2023/01/09 10:56:19;;;;;;;16.73;6.40;;;6.60;99.90;;;;;;5100533;28;20492;-73
2023/01/09 10:58:46;;;;;;;14.80;6.40;;;6.70;99.90;;;;;;5103235;28;20612;-74
2023/01/09 11:01:11;;;;;;;22.20;5.90;;;6.70;99.90;;;;;;5098059;28;20104;-73
2023/01/09 11:03:37;;;;;;;15.52;5.78;;;6.70;99.90;;;;;;5112523;28;20024;-74
2023/01/09 11:06:19;;;;;;;13.95;6.18;;;6.70;99.90;;;;;;5102818;27;20543;-73
2023/01/09 11:08:49;;;;;;;14.50;6.05;;;6.60;99.90;;;;;;5102105;27;20950;-74
2023/01/09 11:11:33;;;;;;;16.60;6.00;;;6.60;99.90;;;;;;5103182;27;21342;-73
2023/01/09 11:14:26;;;;;;;14.32;7.20;;;6.70;99.90;;;;;;5103927;27;20538;-72
2023/01/09 11:16:57;;;;;;;14.93;5.32;;;6.70;99.90;;;;;;5097897;28;20047;-73
2023/01/09 11:19:24;;;;;;;10.15;5.38;;;6.80;99.90;;;;;;5102507;27;20448;-73
2023/01/09 11:22:12;;;;;;;15.60;5.40;;;6.80;99.90;;;;;;5101970;27;20035;-74
2023/01/09 11:24:38;;;;;;;8.38;5.18;;;6.80;99.90;;;;;;5099200;28;20061;-73
2023/01/09 11:27:13;;;;;;;13.82;5.30;;;6.80;99.90;;;;;;5103690;28;20032;-73
2023/01/09 11:29:40;;;;;;;10.00;5.10;;;6.80;99.90;;;;;;5100659;27;20020;-73
2023/01/09 11:32:21;;;;;;;24.15;5.63;;;6.80;99.90;;;;;;5105419;27;20031;-74
2023/01/09 11:34:47;;;;;;;14.45;4.60;;;6.90;99.90;;;;;;5105913;27;20020;-73
2023/01/09 11:37:22;;;;;;;14.15;5.10;;;7.00;99.90;;;;;;5101547;28;20039;-74
2023/01/09 11:39:48;;;;;;;17.13;4.97;;;7.00;99.90;;;;;;5084659;27;20046;-75
2023/01/09 11:45:34;;;;;;;13.05;5.03;;;7.00;99.90;;;;;;5107314;27;20101;-77
2023/01/09 11:48:02;;;;;;;10.02;4.85;;;7.00;99.90;;;;;;5104387;28;20040;-77
2023/01/09 11:50:30;;;;;;;13.50;5.68;;;7.00;99.90;;;;;;5107224;27;20035;-76
2023/01/09 11:53:15;;;;;;;11.95;4.90;;;7.00;99.90;;;;;;5105597;27;20905;-76
2023/01/09 11:55:42;;;;;;;12.80;5.13;;;7.20;99.90;;;;;;5096776;28;20035;-76
2023/01/09 11:58:32;;;;;;;11.63;4.50;;;7.30;99.90;;;;;;5100383;27;20479;-75
2023/01/09 12:01:15;;;;;;;10.35;5.72;;;7.40;99.90;;;;;;5085960;27;20075;-76
2023/01/09 12:04:20;;;;;;;13.25;4.80;;;7.30;99.90;;;;;;5072877;28;20041;-75
2023/01/09 12:06:51;;;;;;;11.95;5.30;;;7.20;99.90;;;;;;5043272;28;20067;-76
2023/01/09 12:09:26;;;;;;;13.80;5.20;;;7.10;99.90;;;;;;5038293;28;20033;-75
2023/01/09 12:12:46;;;;;;;13.95;5.57;;;7.10;99.90;;;;;;5074922;28;20541;-75
2023/01/09 12:15:12;;;;;;;12.00;5.55;;;7.00;99.90;;;;;;5023613;28;20108;-73
2023/01/09 12:17:57;;;;;;;18.35;6.10;;;7.00;99.90;;;;;;5095697;28;20091;-73
2023/01/09 12:21:05;;;;;;;11.82;6.35;;;7.00;99.90;;;;;;5087526;28;20035;-73
2023/01/09 12:23:40;;;;;;;11.10;6.15;;;7.00;99.90;;;;;;5057291;28;20914;-73
2023/01/09 12:26:23;;;;;;;13.05;6.03;;;7.00;99.90;;;;;;5062089;28;20040;-73
2023/01/09 12:29:05;;;;;;;13.27;6.40;;;7.10;99.90;;;;;;5082903;28;20034;-73
2023/01/09 12:31:40;;;;;;;14.57;6.03;;;7.10;99.90;;;;;;5087239;28;20517;-73
2023/01/09 12:34:15;;;;;;;14.98;6.35;;;7.10;99.90;;;;;;5086903;28;20047;-75
2023/01/09 12:37:12;;;;;;;13.55;6.07;;;7.20;99.90;;;;;;5106831;27;20024;-75
2023/01/09 12:39:59;;;;;;;11.30;6.32;;;7.20;99.90;;;;;;5069762;28;20026;-76
2023/01/09 12:42:46;;;;;;;12.13;6.70;;;7.20;99.90;;;;;;5107230;28;20039;-75
2023/01/09 12:45:30;;;;;;;13.45;6.45;;;7.20;99.90;;;;;;5090213;27;20455;-75
2023/01/09 12:48:21;;;;;;;10.77;6.10;;;7.30;99.90;;;;;;5091550;27;20043;-77
2023/01/09 12:51:25;;;;;;;12.68;6.30;;;7.30;99.90;;;;;;5087286;28;20032;-75
2023/01/09 12:54:08;;;;;;;10.93;6.20;;;7.30;99.90;;;;;;5105421;27;20096;-76
2023/01/09 12:56:53;;;;;;;12.85;7.32;;;7.30;99.90;;;;;;5072102;27;20641;-76
2023/01/09 12:59:36;;;;;;;16.10;7.88;;;7.40;99.90;;;;;;5086708;28;20028;-73
2023/01/09 13:02:07;;;;;;;16.17;7.85;;;7.40;99.90;;;;;;5082258;28;20024;-73
2023/01/09 13:04:41;;;;;;;14.27;7.85;;;7.40;99.90;;;;;;5084027;28;20034;-73
2023/01/09 13:07:20;;;;;;;15.60;8.27;;;7.50;99.90;;;;;;5103356;27;20020;-73
2023/01/09 13:10:05;;;;;;;14.88;7.70;;;7.40;99.90;;;;;;5086669;28;20573;-72
2023/01/09 13:12:37;;;;;;;16.33;8.23;;;7.40;99.90;;;;;;5088094;28;20399;-72
2023/01/09 13:15:14;;;;;;;15.93;8.15;;;7.50;99.90;;;;;;5101521;27;20032;-72
2023/01/09 13:17:46;;;;;;;14.55;7.57;;;7.50;99.90;;;;;;5084326;28;20028;-72
2023/01/09 13:20:15;;;;;;;14.20;8.38;;;7.50;99.90;;;;;;5104767;27;20063;-72
2023/01/09 13:22:46;;;;;;;16.50;8.55;;;7.50;99.90;;;;;;5102929;28;20553;-74
2023/01/09 13:25:27;;;;;;;18.35;7.47;;;7.50;99.90;;;;;;5083664;28;20054;-73
2023/01/09 13:28:04;;;;;;;15.43;9.18;;;7.50;99.90;;;;;;5085221;28;20031;-73
2023/01/09 13:30:58;;;;;;;12.35;7.43;;;7.50;99.90;;;;;;5105009;27;20023;-73
2023/01/09 13:33:33;;;;;;;13.00;8.27;;;7.50;99.90;;;;;;5101906;28;20406;-72